Time;durP1;ratioP1;P1;durP2;ratioP2;P2;SDS_P1;SDS_P2;PMS_P1;PMS_P2;Temp;Humidity;BMP_temperature;BMP_pressure;BME280_temperature;BME280_humidity;BME280_pressure;Samples;Min_cycle;Max_cycle;Signal;HPM_P1;HPM_P2
2022/09/20 00:01:21;;;;;;;4.60;3.43;;;15.70;79.30;;;;;;5025578;28;20219;-67
2022/09/20 00:03:52;;;;;;;6.53;3.00;;;15.80;79.90;;;;;;5021502;28;20210;-67
2022/09/20 00:06:21;;;;;;;3.70;3.20;;;15.70;79.90;;;;;;5020521;28;20719;-68
2022/09/20 00:08:49;;;;;;;5.33;3.23;;;15.80;80.30;;;;;;5030005;28;20277;-68
2022/09/20 00:11:22;;;;;;;4.60;3.07;;;15.80;80.30;;;;;;5027782;28;20596;-68
2022/09/20 00:13:51;;;;;;;4.67;3.07;;;15.80;80.10;;;;;;5024109;28;20269;-68
2022/09/20 00:16:27;;;;;;;4.23;3.00;;;15.80;79.90;;;;;;5022410;28;20257;-68
2022/09/20 00:18:55;;;;;;;4.63;2.90;;;15.90;79.90;;;;;;5023267;28;20239;-68
2022/09/20 00:21:27;;;;;;;3.33;2.90;;;15.80;79.50;;;;;;5023864;28;20338;-68
2022/09/20 00:23:56;;;;;;;4.63;2.73;;;15.90;79.40;;;;;;5023944;28;20275;-67
2022/09/20 00:26:25;;;;;;;6.33;2.87;;;15.80;79.20;;;;;;5031654;28;20303;-68
2022/09/20 00:28:52;;;;;;;4.37;3.13;;;15.90;79.20;;;;;;5023093;28;20238;-68
2022/09/20 00:31:19;;;;;;;3.23;2.90;;;15.80;79.00;;;;;;5023995;28;20222;-68
2022/09/20 00:36:32;;;;;;;2.50;2.30;;;15.80;78.60;;;;;;5021992;28;20203;-68
2022/09/20 00:39:02;;;;;;;2.67;2.27;;;15.80;77.80;;;;;;5019290;28;20230;-68
2022/09/20 00:41:31;;;;;;;2.60;2.27;;;15.80;77.60;;;;;;5023672;28;21007;-68
2022/09/20 00:43:59;;;;;;;3.00;2.70;;;15.80;77.00;;;;;;5023570;28;20494;-68
2022/09/20 00:46:42;;;;;;;3.10;2.63;;;15.90;77.10;;;;;;5023594;28;20552;-67
2022/09/20 00:49:20;;;;;;;5.07;2.63;;;15.90;77.00;;;;;;5020709;28;20214;-68
2022/09/20 00:51:55;;;;;;;2.97;2.70;;;15.90;76.80;;;;;;5021155;28;20350;-68
2022/09/20 00:54:24;;;;;;;3.27;2.50;;;15.90;76.60;;;;;;5022332;28;20524;-68
2022/09/20 00:56:51;;;;;;;3.20;2.90;;;15.90;76.30;;;;;;5010659;28;20596;-67
2022/09/20 00:59:27;;;;;;;3.30;2.53;;;15.90;75.90;;;;;;5022633;28;20213;-68
2022/09/20 01:02:05;;;;;;;4.93;2.27;;;15.90;75.90;;;;;;5022871;28;20265;-68
2022/09/20 01:04:34;;;;;;;3.50;2.53;;;15.90;75.90;;;;;;5026326;28;20222;-68
2022/09/20 01:07:03;;;;;;;4.73;2.60;;;15.90;75.90;;;;;;5023640;28;20608;-68
2022/09/20 01:09:30;;;;;;;2.97;2.63;;;15.90;75.90;;;;;;5022264;28;20570;-67
2022/09/20 01:12:02;;;;;;;4.30;2.57;;;15.90;75.80;;;;;;5021666;28;20269;-68
2022/09/20 01:14:29;;;;;;;5.27;2.53;;;15.90;75.60;;;;;;5030913;28;20280;-68
2022/09/20 01:17:02;;;;;;;5.27;2.53;;;16.00;75.50;;;;;;5025415;28;20276;-68
2022/09/20 01:20:03;;;;;;;4.87;2.27;;;16.00;75.60;;;;;;5023170;28;20251;-67
2022/09/20 01:22:57;;;;;;;3.07;2.00;;;16.00;75.60;;;;;;5021725;28;20241;-68
2022/09/20 01:25:45;;;;;;;4.07;2.50;;;16.00;75.90;;;;;;5025181;28;20211;-68
2022/09/20 01:28:13;;;;;;;4.93;2.43;;;15.90;76.80;;;;;;5040184;28;20534;-68
2022/09/20 01:30:51;;;;;;;3.03;2.43;;;15.90;76.30;;;;;;5028091;28;20203;-70
2022/09/20 01:33:43;;;;;;;6.67;2.80;;;15.90;76.60;;;;;;5027318;28;20516;-70
2022/09/20 01:36:16;;;;;;;5.20;2.93;;;15.90;76.90;;;;;;5021859;28;20199;-70
2022/09/20 01:39:04;;;;;;;4.27;2.50;;;15.90;77.20;;;;;;5022605;28;20238;-70
2022/09/20 01:42:04;;;;;;;4.43;2.73;;;15.90;77.40;;;;;;5020174;28;20981;-70
2022/09/20 01:44:56;;;;;;;4.10;2.93;;;15.90;77.80;;;;;;5024879;28;20207;-70
2022/09/20 01:47:32;;;;;;;4.93;3.07;;;15.90;78.10;;;;;;5022833;28;20211;-70
2022/09/20 01:50:11;;;;;;;5.97;3.03;;;15.80;78.20;;;;;;5029838;28;20617;-69
2022/09/20 01:53:03;;;;;;;4.17;2.80;;;15.80;78.60;;;;;;5020881;28;20207;-70
2022/09/20 01:55:39;;;;;;;5.63;2.90;;;15.80;79.30;;;;;;5003729;28;20222;-69
2022/09/20 01:58:21;;;;;;;4.30;2.73;;;15.80;79.40;;;;;;5022423;28;20222;-70
2022/09/20 02:01:01;;;;;;;6.63;2.40;;;15.80;79.70;;;;;;5010471;28;20575;-70
2022/09/20 02:03:40;;;;;;;5.60;2.70;;;15.80;80.00;;;;;;5016353;28;20222;-69
2022/09/20 02:06:17;;;;;;;5.53;2.30;;;15.80;80.30;;;;;;5025963;28;20218;-70
2022/09/20 02:09:02;;;;;;;3.97;1.80;;;15.80;80.50;;;;;;5020963;28;20188;-70
2022/09/20 02:11:58;;;;;;;5.27;2.17;;;15.70;80.70;;;;;;5031334;28;20285;-69
2022/09/20 02:14:50;;;;;;;3.50;1.77;;;15.70;80.80;;;;;;5024402;28;20222;-69
2022/09/20 02:17:33;;;;;;;3.87;1.70;;;15.70;80.90;;;;;;5024498;28;20202;-70
2022/09/20 02:20:35;;;;;;;3.57;1.93;;;15.70;80.90;;;;;;5022078;28;20314;-69
2022/09/20 02:23:28;;;;;;;3.03;1.30;;;15.70;81.00;;;;;;5024382;28;20347;-70
2022/09/20 02:26:13;;;;;;;4.30;1.20;;;15.70;81.00;;;;;;5021533;28;20261;-70
2022/09/20 02:28:54;;;;;;;2.70;1.03;;;15.70;81.00;;;;;;5019348;28;20627;-69
2022/09/20 02:31:43;;;;;;;5.47;1.40;;;15.70;81.00;;;;;;5022176;28;20248;-70
2022/09/20 02:34:15;;;;;;;4.73;1.07;;;15.70;81.00;;;;;;5018774;28;20687;-70
2022/09/20 02:37:11;;;;;;;2.13;1.20;;;15.70;81.00;;;;;;5031731;28;20269;-70
2022/09/20 02:39:56;;;;;;;4.70;1.10;;;15.70;81.20;;;;;;5019832;28;20250;-68
2022/09/20 02:42:28;;;;;;;4.80;1.17;;;15.70;81.10;;;;;;5021730;28;20221;-68
2022/09/20 02:44:55;;;;;;;3.30;1.00;;;15.60;81.10;;;;;;5025801;28;20207;-68
2022/09/20 02:47:41;;;;;;;1.87;0.90;;;15.60;81.30;;;;;;5024822;28;20289;-68
2022/09/20 02:50:31;;;;;;;6.47;1.30;;;15.60;81.60;;;;;;5025606;28;20249;-68
2022/09/20 02:53:36;;;;;;;2.70;0.97;;;15.60;81.80;;;;;;5024928;28;20280;-68
2022/09/20 02:56:17;;;;;;;1.30;0.70;;;15.60;81.70;;;;;;5017661;28;20207;-68
2022/09/20 02:59:09;;;;;;;3.30;1.17;;;15.60;81.60;;;;;;5028705;28;20638;-68
2022/09/20 03:01:48;;;;;;;4.63;1.20;;;15.60;81.70;;;;;;5021391;28;20216;-68
2022/09/20 03:04:36;;;;;;;2.50;0.70;;;15.60;81.90;;;;;;5019547;28;20206;-68
2022/09/20 03:07:08;;;;;;;0.80;0.60;;;15.50;82.10;;;;;;5014678;28;20219;-68
2022/09/20 03:10:00;;;;;;;2.13;1.20;;;15.50;82.20;;;;;;5019535;28;20192;-68
2022/09/20 03:12:48;;;;;;;4.93;1.00;;;15.50;82.50;;;;;;5025833;28;20207;-68
2022/09/20 03:15:15;;;;;;;3.00;0.80;;;15.50;82.50;;;;;;5022927;28;20245;-68
2022/09/20 03:17:53;;;;;;;4.13;1.03;;;15.50;82.50;;;;;;5027931;28;20251;-68
2022/09/20 03:20:47;;;;;;;4.73;1.07;;;15.40;82.60;;;;;;5022895;28;20586;-68
2022/09/20 03:23:43;;;;;;;3.43;1.00;;;15.40;82.70;;;;;;5022261;28;20226;-68
2022/09/20 03:26:29;;;;;;;5.90;1.00;;;15.30;83.00;;;;;;5027940;28;20201;-68
2022/09/20 03:29:18;;;;;;;3.83;1.23;;;15.30;83.10;;;;;;5026129;28;20199;-68
2022/09/20 03:32:13;;;;;;;5.33;1.10;;;15.30;83.30;;;;;;5025067;28;20573;-68
2022/09/20 03:34:52;;;;;;;5.87;2.17;;;15.20;83.40;;;;;;5028231;28;20639;-68
2022/09/20 03:37:29;;;;;;;4.60;1.07;;;15.20;83.70;;;;;;5032278;28;20261;-68
2022/09/20 03:40:17;;;;;;;4.10;1.07;;;15.10;83.90;;;;;;5022148;28;20268;-68
2022/09/20 03:42:47;;;;;;;1.80;1.10;;;15.10;84.20;;;;;;5022849;28;20216;-68
2022/09/20 03:45:57;;;;;;;5.80;1.20;;;15.00;84.30;;;;;;5024549;28;20293;-68
2022/09/20 03:48:30;;;;;;;6.83;1.53;;;15.00;84.60;;;;;;5019772;28;20199;-68
2022/09/20 03:51:09;;;;;;;4.07;0.93;;;15.00;84.50;;;;;;5023308;28;20208;-68
2022/09/20 03:53:45;;;;;;;5.93;1.37;;;14.90;84.70;;;;;;5024400;28;20201;-68
2022/09/20 03:56:21;;;;;;;4.13;1.20;;;14.90;85.10;;;;;;5017377;28;20258;-68
2022/09/20 03:59:05;;;;;;;7.90;1.33;;;14.90;85.30;;;;;;5028162;28;20717;-68
2022/09/20 04:01:40;;;;;;;8.30;1.20;;;14.90;85.50;;;;;;5027495;28;20268;-68
2022/09/20 04:04:22;;;;;;;1.10;0.90;;;14.80;85.40;;;;;;5020916;28;20202;-68
2022/09/20 04:07:15;;;;;;;5.47;1.40;;;14.80;85.40;;;;;;5026995;28;20570;-68
2022/09/20 04:10:13;;;;;;;6.73;1.20;;;14.70;85.00;;;;;;5022850;28;20230;-68
2022/09/20 04:12:52;;;;;;;3.33;1.03;;;14.70;85.10;;;;;;5028429;28;20213;-68
2022/09/20 04:15:29;;;;;;;9.40;1.70;;;14.70;85.40;;;;;;5026049;28;20216;-68
2022/09/20 04:18:00;;;;;;;4.87;1.37;;;14.60;85.70;;;;;;5019644;28;20805;-68
2022/09/20 04:20:37;;;;;;;5.17;1.30;;;14.60;85.70;;;;;;5020744;28;20215;-68
2022/09/20 04:23:23;;;;;;;3.50;1.50;;;14.60;86.00;;;;;;5023805;28;20218;-68
2022/09/20 04:25:50;;;;;;;5.60;1.33;;;14.60;86.30;;;;;;5028228;28;20191;-68
2022/09/20 04:28:24;;;;;;;6.10;1.73;;;14.60;86.40;;;;;;5024248;28;20206;-68
2022/09/20 04:31:00;;;;;;;7.37;1.07;;;14.60;86.60;;;;;;5028049;28;20279;-68
2022/09/20 04:33:36;;;;;;;6.30;1.17;;;14.60;86.70;;;;;;5026985;28;20203;-69
2022/09/20 04:36:28;;;;;;;3.17;1.00;;;14.60;86.80;;;;;;5025180;28;20261;-68
2022/09/20 04:39:07;;;;;;;5.10;1.00;;;14.60;86.80;;;;;;5030097;28;20264;-68
2022/09/20 04:41:58;;;;;;;5.20;1.27;;;14.60;86.70;;;;;;5021441;28;20284;-68
2022/09/20 04:44:57;;;;;;;3.77;1.20;;;14.60;87.20;;;;;;5022676;28;20203;-68
2022/09/20 04:48:05;;;;;;;4.90;1.17;;;14.50;87.10;;;;;;5021938;28;20206;-68
2022/09/20 04:50:54;;;;;;;8.13;1.37;;;14.50;87.00;;;;;;5030196;28;20202;-68
2022/09/20 04:53:26;;;;;;;8.27;1.03;;;14.50;86.90;;;;;;5027062;28;20217;-68
2022/09/20 04:56:43;;;;;;;11.13;1.67;;;14.50;86.80;;;;;;5024936;28;20227;-68
2022/09/20 04:59:41;;;;;;;7.00;1.30;;;14.40;86.90;;;;;;5030575;28;20603;-68
2022/09/20 05:02:30;;;;;;;4.40;1.10;;;14.40;87.00;;;;;;5028519;28;20235;-67
2022/09/20 05:05:13;;;;;;;4.43;1.23;;;14.40;87.00;;;;;;5026849;28;20624;-68
2022/09/20 05:08:01;;;;;;;3.97;1.23;;;14.40;87.10;;;;;;5024140;28;20214;-68
2022/09/20 05:10:40;;;;;;;4.20;1.03;;;14.40;87.10;;;;;;5020754;28;20235;-68
2022/09/20 05:13:13;;;;;;;4.50;1.30;;;14.40;87.40;;;;;;5021722;28;20601;-68
2022/09/20 05:15:43;;;;;;;5.87;1.17;;;14.30;87.60;;;;;;5022124;28;20212;-68
2022/09/20 05:18:41;;;;;;;4.07;1.30;;;14.30;87.70;;;;;;5024211;28;20255;-68
2022/09/20 05:21:23;;;;;;;4.10;1.17;;;14.30;88.00;;;;;;5026950;28;20210;-68
2022/09/20 05:23:50;;;;;;;5.93;2.03;;;14.40;88.20;;;;;;5019975;28;20256;-69
2022/09/20 05:26:33;;;;;;;2.50;1.50;;;14.40;88.20;;;;;;5029757;28;20203;-68
2022/09/20 05:29:29;;;;;;;4.53;1.30;;;14.40;88.10;;;;;;5019677;28;20199;-68
2022/09/20 05:32:21;;;;;;;8.83;2.10;;;14.50;88.00;;;;;;5019779;28;20209;-68
2022/09/20 05:34:55;;;;;;;8.23;1.33;;;14.50;87.80;;;;;;5020726;28;20233;-68
2022/09/20 05:37:40;;;;;;;3.23;1.30;;;14.50;87.60;;;;;;5029410;28;20221;-68
2022/09/20 05:40:32;;;;;;;6.83;1.23;;;14.50;87.40;;;;;;5022104;28;20210;-67
2022/09/20 05:43:12;;;;;;;5.80;1.10;;;14.50;87.50;;;;;;5026915;28;20245;-68
2022/09/20 05:46:13;;;;;;;5.37;1.10;;;14.60;87.80;;;;;;5022942;28;20332;-68
2022/09/20 05:48:52;;;;;;;4.13;1.40;;;14.60;87.90;;;;;;5021858;28;20221;-68
2022/09/20 05:51:50;;;;;;;6.20;1.07;;;14.70;88.00;;;;;;5020773;28;20231;-68
2022/09/20 05:54:50;;;;;;;5.20;0.90;;;14.80;88.40;;;;;;5020622;28;20207;-68
2022/09/20 05:57:54;;;;;;;6.30;1.37;;;14.90;88.50;;;;;;5020260;28;20204;-68
2022/09/20 06:00:26;;;;;;;7.00;1.87;;;15.00;88.60;;;;;;5021627;28;20599;-68
2022/09/20 06:03:17;;;;;;;5.33;1.57;;;15.10;88.50;;;;;;5027092;28;20231;-67
2022/09/20 06:06:09;;;;;;;4.90;1.77;;;15.20;88.50;;;;;;5023734;28;20202;-67
2022/09/20 06:08:39;;;;;;;7.67;1.93;;;15.30;88.70;;;;;;5022453;28;20203;-68
2022/09/20 06:11:30;;;;;;;8.10;1.63;;;15.40;88.60;;;;;;5020624;28;20210;-68
2022/09/20 06:14:14;;;;;;;6.93;1.77;;;15.40;88.50;;;;;;5022409;28;20203;-67
2022/09/20 06:16:55;;;;;;;9.27;2.00;;;15.50;88.70;;;;;;5019398;28;20257;-67
2022/09/20 06:19:39;;;;;;;7.50;1.77;;;15.70;88.80;;;;;;5020476;28;20307;-67
2022/09/20 06:22:16;;;;;;;11.63;2.27;;;15.80;87.80;;;;;;5022133;28;20231;-67
2022/09/20 06:24:55;;;;;;;5.63;2.00;;;15.90;87.00;;;;;;5026567;28;20279;-67
2022/09/20 06:27:52;;;;;;;9.37;2.20;;;16.00;86.50;;;;;;5027919;28;20347;-67
2022/09/20 06:30:38;;;;;;;6.53;2.57;;;16.00;86.20;;;;;;5001615;28;20635;-67
2022/09/20 06:33:05;;;;;;;3.97;2.07;;;16.10;85.80;;;;;;5021133;28;20207;-68
2022/09/20 06:41:25;;;;;;;7.60;2.33;;;16.10;85.40;;;;;;5024961;28;20728;-68
2022/09/20 06:41:44;;;;;;;3.30;1.70;;;16.20;84.80;;;;;;5023353;28;20626;-68
2022/09/20 06:44:11;;;;;;;6.13;1.90;;;16.20;84.80;;;;;;5023278;28;20589;-68
2022/09/20 06:46:40;;;;;;;3.17;1.40;;;16.30;84.30;;;;;;5021569;28;20210;-68
2022/09/20 06:49:08;;;;;;;7.90;2.27;;;16.30;83.40;;;;;;5022575;28;20199;-67
2022/09/20 06:51:38;;;;;;;5.30;1.80;;;16.40;83.20;;;;;;5022909;28;20246;-67
2022/09/20 06:54:11;;;;;;;3.33;1.50;;;16.40;82.80;;;;;;5021046;28;20239;-68
2022/09/20 06:56:38;;;;;;;4.70;1.30;;;16.50;82.10;;;;;;5019967;28;20207;-68
2022/09/20 06:59:07;;;;;;;3.57;1.97;;;16.50;82.10;;;;;;5022199;28;20273;-68
2022/09/20 07:01:34;;;;;;;2.93;1.13;;;16.60;82.00;;;;;;5023668;28;20207;-68
2022/09/20 07:04:03;;;;;;;2.77;1.67;;;16.60;81.80;;;;;;5024073;28;20283;-67
2022/09/20 07:06:29;;;;;;;8.57;1.93;;;16.70;81.80;;;;;;5025786;28;20217;-68
2022/09/20 07:08:57;;;;;;;3.77;2.07;;;16.70;82.30;;;;;;5026688;28;20204;-68
2022/09/20 07:11:24;;;;;;;6.90;1.80;;;16.80;82.40;;;;;;5020362;28;20211;-67
2022/09/20 07:13:54;;;;;;;4.73;1.43;;;16.90;81.50;;;;;;5016560;28;20214;-68
2022/09/20 07:16:21;;;;;;;5.90;1.50;;;17.00;80.90;;;;;;5022306;28;20203;-68
2022/09/20 07:18:51;;;;;;;2.87;1.53;;;17.00;80.50;;;;;;5022503;28;20289;-68
2022/09/20 07:21:19;;;;;;;4.00;1.50;;;17.10;80.80;;;;;;5021190;28;20199;-68
2022/09/20 07:23:47;;;;;;;3.27;1.67;;;17.20;80.80;;;;;;5020037;28;20660;-67
2022/09/20 07:26:19;;;;;;;4.80;1.43;;;17.30;81.10;;;;;;5018511;28;20203;-67
2022/09/20 07:28:46;;;;;;;5.57;2.13;;;17.40;80.80;;;;;;5021861;28;20215;-68
2022/09/20 07:31:14;;;;;;;3.40;1.53;;;17.50;80.50;;;;;;5024631;28;20241;-68
2022/09/20 07:33:41;;;;;;;6.00;2.03;;;17.70;80.90;;;;;;5019982;28;20208;-68
2022/09/20 07:36:11;;;;;;;6.43;1.50;;;17.80;80.80;;;;;;5022431;28;20209;-68
2022/09/20 07:38:39;;;;;;;5.90;1.50;;;17.90;80.30;;;;;;5023568;28;20212;-67
2022/09/20 07:41:06;;;;;;;6.67;1.77;;;18.10;79.70;;;;;;5024615;28;20208;-68
2022/09/20 07:43:34;;;;;;;4.10;1.50;;;18.20;79.30;;;;;;5024492;28;20217;-68
2022/09/20 07:46:01;;;;;;;4.13;1.63;;;18.30;78.40;;;;;;5020914;28;20268;-68
2022/09/20 07:48:31;;;;;;;6.97;1.53;;;18.50;77.10;;;;;;5018133;28;20252;-68
2022/09/20 07:51:03;;;;;;;2.13;1.10;;;18.60;76.20;;;;;;5025315;28;20206;-68
2022/09/20 07:53:35;;;;;;;5.57;1.40;;;18.60;76.00;;;;;;5022502;28;20236;-68
2022/09/20 07:56:04;;;;;;;4.00;1.50;;;18.80;75.70;;;;;;5021284;28;20255;-68
2022/09/20 07:58:32;;;;;;;5.63;1.40;;;18.90;76.00;;;;;;5021760;28;20684;-68
2022/09/20 08:01:08;;;;;;;4.50;1.30;;;19.10;75.20;;;;;;5023842;28;20581;-68
2022/09/20 08:03:36;;;;;;;6.50;1.50;;;19.10;74.50;;;;;;5020826;28;20233;-68
2022/09/20 08:06:08;;;;;;;3.03;1.10;;;19.30;74.80;;;;;;5020852;28;20212;-68
2022/09/20 08:08:38;;;;;;;6.73;1.27;;;19.40;74.50;;;;;;5020671;28;20296;-68
2022/09/20 08:11:07;;;;;;;2.60;1.30;;;19.50;73.70;;;;;;5021280;28;20519;-68
2022/09/20 08:13:58;;;;;;;4.93;1.73;;;19.60;74.00;;;;;;5026272;28;20552;-68
2022/09/20 08:16:46;;;;;;;4.40;1.33;;;19.80;73.90;;;;;;5020509;28;20214;-68
2022/09/20 08:19:16;;;;;;;7.07;1.10;;;19.90;73.70;;;;;;5024966;28;20265;-68
2022/09/20 08:21:43;;;;;;;5.03;1.20;;;20.00;72.70;;;;;;5021531;28;20524;-68
2022/09/20 08:24:11;;;;;;;7.30;1.00;;;20.10;73.20;;;;;;5024632;28;20223;-68
2022/09/20 08:26:38;;;;;;;8.47;1.30;;;20.30;72.40;;;;;;5027584;28;20215;-68
2022/09/20 08:29:05;;;;;;;4.30;1.10;;;20.40;72.40;;;;;;5025173;28;20253;-68
2022/09/20 08:31:35;;;;;;;3.67;1.30;;;20.60;71.60;;;;;;5025583;28;20213;-68
2022/09/20 08:34:05;;;;;;;4.50;1.53;;;20.70;71.20;;;;;;5020939;28;20210;-68
2022/09/20 08:36:34;;;;;;;4.03;1.40;;;20.80;70.60;;;;;;5023635;28;20600;-68
2022/09/20 08:39:03;;;;;;;6.30;1.63;;;20.90;70.10;;;;;;5022391;28;20202;-68
2022/09/20 08:41:55;;;;;;;4.93;1.40;;;21.00;70.30;;;;;;5022508;28;20214;-68
2022/09/20 08:44:51;;;;;;;4.57;1.20;;;21.10;70.80;;;;;;5018720;28;20918;-68
2022/09/20 08:47:34;;;;;;;6.47;1.60;;;21.10;70.10;;;;;;5024233;28;20209;-68
2022/09/20 08:50:07;;;;;;;4.50;1.07;;;21.30;69.30;;;;;;5029736;28;20203;-68
2022/09/20 08:52:46;;;;;;;3.73;1.60;;;21.40;69.10;;;;;;5022209;28;20204;-68
2022/09/20 08:55:16;;;;;;;5.03;1.53;;;21.60;68.40;;;;;;5025244;28;20213;-68
2022/09/20 08:57:48;;;;;;;2.77;1.13;;;21.70;67.90;;;;;;5022936;28;20210;-68
2022/09/20 09:00:18;;;;;;;8.87;1.70;;;21.80;67.60;;;;;;5025073;28;20269;-68
2022/09/20 09:02:46;;;;;;;6.70;1.87;;;21.80;67.30;;;;;;5021442;28;20230;-68
2022/09/20 09:05:32;;;;;;;7.60;2.20;;;22.00;67.00;;;;;;5027429;28;20242;-68
2022/09/20 09:08:04;;;;;;;5.77;1.57;;;22.00;66.20;;;;;;5023357;28;20198;-68
2022/09/20 09:10:36;;;;;;;5.17;1.37;;;22.10;66.60;;;;;;5029840;28;20211;-69
2022/09/20 09:13:47;;;;;;;5.57;1.23;;;22.30;66.50;;;;;;5028546;28;20625;-68
2022/09/20 09:16:18;;;;;;;3.63;1.30;;;22.50;65.50;;;;;;5027282;28;20211;-69
2022/09/20 09:18:54;;;;;;;7.37;1.40;;;22.60;65.00;;;;;;5024265;28;20246;-68
2022/09/20 09:21:27;;;;;;;3.37;1.40;;;22.70;65.00;;;;;;5022742;28;20647;-68
2022/09/20 09:24:01;;;;;;;3.87;1.10;;;22.80;65.00;;;;;;5027207;28;20223;-69
2022/09/20 09:26:35;;;;;;;5.23;1.37;;;22.90;64.50;;;;;;5022588;28;20207;-69
2022/09/20 09:29:23;;;;;;;7.30;1.60;;;23.00;62.80;;;;;;5025957;28;20265;-68
2022/09/20 09:31:51;;;;;;;4.57;1.50;;;23.10;62.70;;;;;;5023496;28;20273;-68
2022/09/20 09:34:34;;;;;;;6.27;1.40;;;23.20;62.10;;;;;;5020911;28;20211;-69
2022/09/20 09:37:01;;;;;;;4.97;1.37;;;23.20;62.60;;;;;;5026054;28;20616;-68
2022/09/20 09:39:33;;;;;;;4.23;1.40;;;23.20;62.40;;;;;;5021842;28;20558;-69
2022/09/20 09:42:19;;;;;;;2.70;1.23;;;23.20;63.50;;;;;;5024526;28;20542;-69
2022/09/20 09:44:49;;;;;;;6.03;1.20;;;23.40;63.80;;;;;;5040648;28;20231;-69
2022/09/20 09:47:27;;;;;;;8.13;1.47;;;23.60;63.50;;;;;;5019612;28;20204;-69
2022/09/20 09:49:58;;;;;;;5.13;1.70;;;23.80;62.90;;;;;;5022294;28;20203;-69
2022/09/20 09:52:32;;;;;;;3.10;1.13;;;24.00;62.10;;;;;;5022673;28;20199;-69
2022/09/20 09:55:01;;;;;;;8.73;1.23;;;24.10;62.20;;;;;;5021525;28;20208;-69
2022/09/20 09:57:54;;;;;;;3.30;1.00;;;24.20;60.60;;;;;;5017399;28;20212;-68
2022/09/20 10:00:23;;;;;;;5.77;1.47;;;24.20;61.00;;;;;;5025346;28;20265;-68
2022/09/20 10:03:09;;;;;;;6.00;1.03;;;24.10;59.60;;;;;;5024627;28;20206;-69
2022/09/20 10:05:44;;;;;;;5.50;1.27;;;24.00;59.60;;;;;;5028391;28;20655;-68
2022/09/20 10:08:29;;;;;;;5.67;1.20;;;24.00;59.60;;;;;;5022402;28;20536;-67
2022/09/20 10:11:09;;;;;;;3.33;1.10;;;24.00;59.60;;;;;;5022599;28;20203;-68
2022/09/20 10:13:56;;;;;;;7.10;1.10;;;24.00;60.40;;;;;;5030249;28;20210;-68
2022/09/20 10:16:54;;;;;;;5.93;1.40;;;24.10;59.60;;;;;;5019464;28;20650;-68
2022/09/20 10:19:34;;;;;;;4.83;1.00;;;24.00;60.40;;;;;;5015866;28;20326;-68
2022/09/20 10:22:17;;;;;;;5.67;1.27;;;24.20;60.30;;;;;;5023266;28;20277;-68
2022/09/20 10:25:12;;;;;;;5.30;1.67;;;24.30;59.90;;;;;;5019876;28;20241;-68
2022/09/20 10:28:13;;;;;;;3.17;0.90;;;24.20;59.70;;;;;;5023671;28;20316;-68
2022/09/20 10:31:00;;;;;;;9.43;1.53;;;24.20;59.10;;;;;;5021116;28;20598;-68
2022/09/20 10:33:33;;;;;;;3.63;1.30;;;24.40;60.60;;;;;;5019916;28;20205;-68
2022/09/20 10:36:27;;;;;;;7.77;1.53;;;24.50;59.70;;;;;;5021668;28;20227;-68
2022/09/20 10:39:08;;;;;;;4.30;1.20;;;24.80;59.50;;;;;;5008593;28;20220;-68
2022/09/20 10:44:46;;;;;;;4.50;1.20;;;24.80;57.70;;;;;;5021793;28;20234;-68
2022/09/20 10:47:19;;;;;;;4.73;1.30;;;24.60;58.00;;;;;;5024409;28;20273;-68
2022/09/20 10:49:56;;;;;;;3.77;1.40;;;24.60;58.50;;;;;;5019871;28;20839;-68
2022/09/20 10:52:37;;;;;;;1.03;1.00;;;24.70;56.40;;;;;;5020107;28;20592;-68
2022/09/20 10:55:17;;;;;;;3.87;1.37;;;24.70;57.10;;;;;;5018884;28;20719;-68
2022/09/20 10:58:00;;;;;;;3.80;1.17;;;24.70;56.30;;;;;;5019436;28;20485;-68
2022/09/20 11:00:35;;;;;;;6.23;1.07;;;24.70;56.90;;;;;;5026333;28;20213;-68
2022/09/20 11:03:24;;;;;;;6.53;1.00;;;24.80;56.90;;;;;;5020026;28;20211;-68
2022/09/20 11:06:28;;;;;;;2.77;0.77;;;24.80;56.00;;;;;;5016471;28;20204;-67
2022/09/20 11:09:01;;;;;;;3.03;0.50;;;24.60;56.00;;;;;;5019474;28;20535;-68
2022/09/20 11:11:34;;;;;;;2.90;0.90;;;24.60;56.80;;;;;;5022037;28;20195;-68
2022/09/20 11:14:13;;;;;;;1.80;0.80;;;24.70;56.50;;;;;;5012083;28;20200;-68
2022/09/20 11:16:59;;;;;;;3.03;0.77;;;24.90;56.50;;;;;;5022116;28;20269;-67
2022/09/20 11:19:34;;;;;;;3.07;1.13;;;25.20;55.70;;;;;;5021191;28;20239;-68
2022/09/20 11:22:13;;;;;;;3.27;0.93;;;25.50;54.60;;;;;;5020172;28;20203;-68
2022/09/20 11:24:56;;;;;;;3.80;0.80;;;25.60;53.90;;;;;;5016281;28;20242;-68
2022/09/20 11:27:34;;;;;;;2.97;0.73;;;25.70;54.50;;;;;;5021873;28;20632;-68
2022/09/20 11:30:07;;;;;;;4.07;1.10;;;25.80;54.80;;;;;;5018330;28;20610;-67
2022/09/20 11:32:41;;;;;;;3.33;0.87;;;26.00;54.90;;;;;;5017302;28;20291;-69
2022/09/20 11:35:11;;;;;;;1.60;0.67;;;26.30;54.20;;;;;;5019386;28;20207;-68
2022/09/20 11:38:03;;;;;;;4.03;1.07;;;26.50;53.70;;;;;;5021800;28;20243;-68
2022/09/20 11:40:39;;;;;;;4.73;1.00;;;26.60;53.50;;;;;;5030627;28;20212;-68
2022/09/20 11:43:10;;;;;;;3.97;0.70;;;26.80;52.20;;;;;;5028158;28;20230;-68
2022/09/20 11:45:39;;;;;;;6.70;1.60;;;26.90;52.30;;;;;;5022340;28;20234;-68
2022/09/20 11:48:20;;;;;;;2.67;1.00;;;27.00;51.70;;;;;;5026393;28;20203;-70
2022/09/20 11:51:04;;;;;;;3.03;0.90;;;27.10;51.30;;;;;;5026520;28;20215;-68
2022/09/20 11:53:56;;;;;;;6.73;1.27;;;27.10;50.90;;;;;;5021578;28;20293;-68
2022/09/20 11:56:25;;;;;;;2.87;0.70;;;27.10;50.80;;;;;;5020741;28;20282;-68
2022/09/20 11:58:58;;;;;;;2.40;0.80;;;27.10;50.90;;;;;;5023621;28;20240;-68
2022/09/20 12:01:31;;;;;;;1.53;0.80;;;27.10;50.50;;;;;;5031472;28;20259;-68
2022/09/20 12:04:29;;;;;;;1.23;0.80;;;27.00;50.60;;;;;;5021230;28;20230;-68
2022/09/20 12:07:17;;;;;;;2.50;0.63;;;26.90;50.40;;;;;;5034318;28;20203;-68
2022/09/20 12:10:02;;;;;;;1.87;0.70;;;26.80;50.80;;;;;;5025813;28;20268;-68
2022/09/20 12:12:42;;;;;;;3.50;1.00;;;26.60;51.10;;;;;;5019583;28;20212;-68
2022/09/20 12:15:26;;;;;;;2.23;0.70;;;26.30;51.10;;;;;;5018596;28;20201;-68
2022/09/20 12:17:56;;;;;;;3.73;0.90;;;26.20;51.00;;;;;;5024591;28;20269;-68
2022/09/20 12:20:38;;;;;;;6.07;0.93;;;26.30;51.20;;;;;;5030262;28;20218;-68
2022/09/20 12:23:39;;;;;;;1.30;0.70;;;26.40;51.40;;;;;;5020862;28;20261;-69
2022/09/20 12:26:21;;;;;;;2.77;0.67;;;26.40;50.80;;;;;;5022428;28;20231;-68
2022/09/20 12:28:57;;;;;;;3.60;1.10;;;26.40;50.30;;;;;;5023999;28;20200;-68
2022/09/20 12:31:25;;;;;;;4.57;0.73;;;26.20;50.00;;;;;;5039128;28;20209;-68
2022/09/20 12:34:12;;;;;;;4.23;1.00;;;26.00;50.00;;;;;;5008924;28;20207;-69
2022/09/20 12:36:45;;;;;;;4.03;0.63;;;25.80;49.40;;;;;;5023456;28;20221;-68
2022/09/20 12:39:12;;;;;;;3.27;0.60;;;25.70;50.40;;;;;;5023552;28;20205;-68
2022/09/20 12:41:47;;;;;;;4.13;0.63;;;25.80;50.70;;;;;;5024850;28;20200;-68
2022/09/20 12:44:35;;;;;;;1.83;0.80;;;25.90;50.60;;;;;;5026977;28;20208;-68
2022/09/20 12:47:07;;;;;;;2.60;0.60;;;26.10;50.50;;;;;;5016873;28;20207;-68
2022/09/20 12:52:52;;;;;;;5.03;1.20;;;26.40;49.50;;;;;;5022478;28;20669;-68
2022/09/20 12:55:31;;;;;;;3.03;0.70;;;26.50;49.30;;;;;;5029512;28;20588;-69
2022/09/20 12:58:13;;;;;;;3.63;0.80;;;26.60;48.30;;;;;;5028245;28;20221;-70
2022/09/20 13:00:41;;;;;;;3.03;0.60;;;26.60;48.70;;;;;;5022266;28;20699;-69
2022/09/20 13:03:22;;;;;;;2.20;0.80;;;26.60;48.60;;;;;;5021207;28;20214;-68
2022/09/20 13:06:16;;;;;;;1.47;0.60;;;26.60;48.90;;;;;;5025643;28;20200;-68
2022/09/20 13:08:55;;;;;;;2.33;0.80;;;26.60;47.80;;;;;;5023796;28;20220;-68
2022/09/20 13:11:27;;;;;;;3.53;1.13;;;26.60;48.00;;;;;;5024131;28;20650;-68
2022/09/20 13:13:56;;;;;;;3.57;1.00;;;26.60;48.20;;;;;;5017911;28;20525;-68
2022/09/20 13:16:32;;;;;;;3.47;0.97;;;26.60;48.10;;;;;;5018888;28;20211;-68
2022/09/20 13:19:10;;;;;;;2.00;0.70;;;26.70;47.30;;;;;;5032931;28;20598;-68
2022/09/20 13:21:41;;;;;;;2.27;0.50;;;26.70;47.10;;;;;;5021179;28;20211;-68
2022/09/20 13:24:15;;;;;;;2.53;0.73;;;26.70;46.80;;;;;;5027558;28;20230;-68
2022/09/20 13:26:45;;;;;;;4.90;1.20;;;26.60;44.70;;;;;;5026652;28;20286;-68
2022/09/20 13:29:34;;;;;;;2.63;0.73;;;26.50;45.50;;;;;;5017247;28;20196;-68
2022/09/20 13:32:25;;;;;;;4.80;1.03;;;26.50;45.50;;;;;;5025274;28;20651;-68
2022/09/20 13:35:07;;;;;;;1.33;0.70;;;26.40;45.70;;;;;;5023423;28;20211;-68
2022/09/20 13:37:44;;;;;;;1.67;0.57;;;26.30;45.80;;;;;;5017679;28;20759;-68
2022/09/20 13:40:18;;;;;;;4.90;1.03;;;26.20;45.40;;;;;;5017951;28;20216;-68
2022/09/20 13:42:48;;;;;;;1.93;0.77;;;26.10;45.70;;;;;;5021536;28;20203;-68
2022/09/20 13:45:16;;;;;;;2.00;0.93;;;26.10;46.30;;;;;;5023023;28;20272;-68
2022/09/20 13:47:49;;;;;;;1.23;0.63;;;26.00;46.30;;;;;;5024391;28;20222;-69
2022/09/20 13:50:26;;;;;;;5.63;1.17;;;26.00;46.20;;;;;;5027043;28;20203;-68
2022/09/20 13:52:57;;;;;;;2.40;0.57;;;25.90;45.90;;;;;;5022928;28;20286;-68
2022/09/20 13:55:34;;;;;;;1.33;0.70;;;25.80;45.50;;;;;;5019773;28;20273;-68
2022/09/20 13:58:23;;;;;;;1.23;0.70;;;25.70;45.20;;;;;;5022776;28;20274;-70
2022/09/20 14:00:54;;;;;;;1.67;0.87;;;25.60;45.70;;;;;;5019665;28;20216;-69